sensor_id;sensor_type;location;lat;lon;timestamp;temperature;humidity
45319;DHT22;31057;48.498;32.260;2022-08-25T00:01:35;21.20;62.70
45319;DHT22;31057;48.498;32.260;2022-08-25T00:04:39;21.20;63.00
45319;DHT22;31057;48.498;32.260;2022-08-25T00:07:43;20.90;63.90
45319;DHT22;31057;48.498;32.260;2022-08-25T00:10:45;20.80;64.90
45319;DHT22;31057;48.498;32.260;2022-08-25T00:14:14;20.70;65.30
45319;DHT22;31057;48.498;32.260;2022-08-25T00:17:16;20.50;66.50
45319;DHT22;31057;48.498;32.260;2022-08-25T00:20:18;20.50;66.60
45319;DHT22;31057;48.498;32.260;2022-08-25T00:23:20;20.30;67.20
45319;DHT22;31057;48.498;32.260;2022-08-25T00:26:23;20.10;69.20
45319;DHT22;31057;48.498;32.260;2022-08-25T00:29:28;19.70;70.40
45319;DHT22;31057;48.498;32.260;2022-08-25T00:32:31;19.80;70.90
45319;DHT22;31057;48.498;32.260;2022-08-25T00:35:33;19.90;69.80
45319;DHT22;31057;48.498;32.260;2022-08-25T00:38:36;19.70;71.30
45319;DHT22;31057;48.498;32.260;2022-08-25T00:41:41;19.40;72.60
45319;DHT22;31057;48.498;32.260;2022-08-25T00:44:43;19.50;72.50
45319;DHT22;31057;48.498;32.260;2022-08-25T00:47:46;19.50;72.80
45319;DHT22;31057;48.498;32.260;2022-08-25T00:50:48;19.50;72.40
45319;DHT22;31057;48.498;32.260;2022-08-25T00:53:50;19.40;72.50
45319;DHT22;31057;48.498;32.260;2022-08-25T00:56:53;19.60;72.30
45319;DHT22;31057;48.498;32.260;2022-08-25T00:59:56;19.40;73.10
45319;DHT22;31057;48.498;32.260;2022-08-25T01:02:58;19.40;72.70
45319;DHT22;31057;48.498;32.260;2022-08-25T01:06:02;19.50;72.50
45319;DHT22;31057;48.498;32.260;2022-08-25T01:09:05;19.50;73.20
45319;DHT22;31057;48.498;32.260;2022-08-25T01:12:07;19.30;73.60
45319;DHT22;31057;48.498;32.260;2022-08-25T01:15:12;19.40;73.60
45319;DHT22;31057;48.498;32.260;2022-08-25T01:18:14;19.20;75.00
45319;DHT22;31057;48.498;32.260;2022-08-25T01:21:18;19.00;75.70
45319;DHT22;31057;48.498;32.260;2022-08-25T01:24:41;19.00;75.80
45319;DHT22;31057;48.498;32.260;2022-08-25T01:27:45;18.90;76.30
45319;DHT22;31057;48.498;32.260;2022-08-25T01:30:47;19.20;74.70
45319;DHT22;31057;48.498;32.260;2022-08-25T01:33:50;19.20;75.10
45319;DHT22;31057;48.498;32.260;2022-08-25T01:36:53;19.00;75.80
45319;DHT22;31057;48.498;32.260;2022-08-25T01:39:55;19.10;75.80
45319;DHT22;31057;48.498;32.260;2022-08-25T01:43:02;19.00;75.90
45319;DHT22;31057;48.498;32.260;2022-08-25T01:46:07;19.10;75.00
45319;DHT22;31057;48.498;32.260;2022-08-25T01:49:09;19.10;75.60
45319;DHT22;31057;48.498;32.260;2022-08-25T01:52:20;19.20;74.70
45319;DHT22;31057;48.498;32.260;2022-08-25T01:55:24;19.30;74.90
45319;DHT22;31057;48.498;32.260;2022-08-25T01:58:31;19.20;74.50
45319;DHT22;31057;48.498;32.260;2022-08-25T02:01:33;19.20;74.90
45319;DHT22;31057;48.498;32.260;2022-08-25T02:04:36;19.20;75.30
45319;DHT22;31057;48.498;32.260;2022-08-25T02:07:38;19.30;75.00
45319;DHT22;31057;48.498;32.260;2022-08-25T02:10:40;19.30;75.50
45319;DHT22;31057;48.498;32.260;2022-08-25T02:13:42;19.10;75.60
45319;DHT22;31057;48.498;32.260;2022-08-25T02:16:50;19.00;76.20
45319;DHT22;31057;48.498;32.260;2022-08-25T02:19:52;19.00;76.80
45319;DHT22;31057;48.498;32.260;2022-08-25T02:22:56;19.00;76.30
45319;DHT22;31057;48.498;32.260;2022-08-25T02:25:58;19.00;76.40
45319;DHT22;31057;48.498;32.260;2022-08-25T02:29:00;19.00;75.90
45319;DHT22;31057;48.498;32.260;2022-08-25T02:32:02;19.10;76.10
45319;DHT22;31057;48.498;32.260;2022-08-25T02:35:05;19.20;76.40
45319;DHT22;31057;48.498;32.260;2022-08-25T02:38:08;19.20;75.60
45319;DHT22;31057;48.498;32.260;2022-08-25T02:41:15;19.20;76.00
45319;DHT22;31057;48.498;32.260;2022-08-25T02:44:18;19.00;76.80
45319;DHT22;31057;48.498;32.260;2022-08-25T02:47:20;18.90;77.70
45319;DHT22;31057;48.498;32.260;2022-08-25T02:50:27;18.90;77.70
45319;DHT22;31057;48.498;32.260;2022-08-25T02:53:29;19.00;78.00
45319;DHT22;31057;48.498;32.260;2022-08-25T02:56:32;18.80;78.20
45319;DHT22;31057;48.498;32.260;2022-08-25T02:59:34;18.80;78.70
45319;DHT22;31057;48.498;32.260;2022-08-25T03:02:36;19.20;76.60
45319;DHT22;31057;48.498;32.260;2022-08-25T03:05:38;19.00;77.60
45319;DHT22;31057;48.498;32.260;2022-08-25T03:08:41;19.00;77.40
45319;DHT22;31057;48.498;32.260;2022-08-25T03:11:43;19.10;77.40
45319;DHT22;31057;48.498;32.260;2022-08-25T03:14:45;19.10;77.70
45319;DHT22;31057;48.498;32.260;2022-08-25T03:17:47;19.10;78.40
45319;DHT22;31057;48.498;32.260;2022-08-25T03:20:51;19.10;78.20
45319;DHT22;31057;48.498;32.260;2022-08-25T03:23:53;18.90;79.00
45319;DHT22;31057;48.498;32.260;2022-08-25T03:26:55;19.00;78.80
45319;DHT22;31057;48.498;32.260;2022-08-25T03:29:57;19.30;77.00
45319;DHT22;31057;48.498;32.260;2022-08-25T03:32:59;19.40;77.20
45319;DHT22;31057;48.498;32.260;2022-08-25T03:36:01;19.30;77.70
45319;DHT22;31057;48.498;32.260;2022-08-25T03:39:04;19.30;78.10
45319;DHT22;31057;48.498;32.260;2022-08-25T03:42:06;19.30;77.40
45319;DHT22;31057;48.498;32.260;2022-08-25T03:45:10;19.40;77.90
45319;DHT22;31057;48.498;32.260;2022-08-25T03:48:15;19.60;77.00
45319;DHT22;31057;48.498;32.260;2022-08-25T03:51:19;19.60;77.70
45319;DHT22;31057;48.498;32.260;2022-08-25T03:54:24;19.60;77.60
45319;DHT22;31057;48.498;32.260;2022-08-25T03:57:26;19.70;77.70
45319;DHT22;31057;48.498;32.260;2022-08-25T04:00:28;19.70;77.70
45319;DHT22;31057;48.498;32.260;2022-08-25T04:03:30;19.70;77.90
45319;DHT22;31057;48.498;32.260;2022-08-25T04:06:33;19.70;78.10
45319;DHT22;31057;48.498;32.260;2022-08-25T04:09:35;19.70;78.10
45319;DHT22;31057;48.498;32.260;2022-08-25T04:12:37;19.70;79.20
45319;DHT22;31057;48.498;32.260;2022-08-25T04:15:43;19.80;78.70
45319;DHT22;31057;48.498;32.260;2022-08-25T04:18:46;19.90;78.20
45319;DHT22;31057;48.498;32.260;2022-08-25T04:21:48;20.10;77.50
45319;DHT22;31057;48.498;32.260;2022-08-25T04:24:50;20.10;78.20
45319;DHT22;31057;48.498;32.260;2022-08-25T04:27:53;20.20;78.30
45319;DHT22;31057;48.498;32.260;2022-08-25T04:30:55;20.20;78.30
45319;DHT22;31057;48.498;32.260;2022-08-25T04:33:59;20.20;78.80
45319;DHT22;31057;48.498;32.260;2022-08-25T04:37:14;20.30;79.30
45319;DHT22;31057;48.498;32.260;2022-08-25T04:40:17;20.60;77.80
45319;DHT22;31057;48.498;32.260;2022-08-25T04:43:24;20.60;77.20
45319;DHT22;31057;48.498;32.260;2022-08-25T04:46:28;20.70;77.60
45319;DHT22;31057;48.498;32.260;2022-08-25T04:49:30;20.90;77.20
45319;DHT22;31057;48.498;32.260;2022-08-25T04:52:32;21.00;76.80
45319;DHT22;31057;48.498;32.260;2022-08-25T04:55:40;21.00;76.70
45319;DHT22;31057;48.498;32.260;2022-08-25T04:58:43;21.10;76.10
45319;DHT22;31057;48.498;32.260;2022-08-25T05:01:49;21.10;75.20
45319;DHT22;31057;48.498;32.260;2022-08-25T05:04:53;21.30;75.00
45319;DHT22;31057;48.498;32.260;2022-08-25T05:07:56;21.40;76.00
45319;DHT22;31057;48.498;32.260;2022-08-25T05:10:58;21.50;75.50
45319;DHT22;31057;48.498;32.260;2022-08-25T05:14:04;21.60;74.90
45319;DHT22;31057;48.498;32.260;2022-08-25T05:17:06;21.80;74.40
45319;DHT22;31057;48.498;32.260;2022-08-25T05:20:08;21.70;74.70
45319;DHT22;31057;48.498;32.260;2022-08-25T05:23:11;21.80;74.60
45319;DHT22;31057;48.498;32.260;2022-08-25T05:26:23;21.90;74.20
45319;DHT22;31057;48.498;32.260;2022-08-25T05:29:26;21.90;74.50
45319;DHT22;31057;48.498;32.260;2022-08-25T05:32:28;22.00;74.80
45319;DHT22;31057;48.498;32.260;2022-08-25T05:35:30;22.10;73.90
45319;DHT22;31057;48.498;32.260;2022-08-25T05:38:32;22.20;73.30
45319;DHT22;31057;48.498;32.260;2022-08-25T05:41:34;22.20;73.80
45319;DHT22;31057;48.498;32.260;2022-08-25T05:44:36;22.40;73.10
45319;DHT22;31057;48.498;32.260;2022-08-25T05:47:38;22.60;72.30
45319;DHT22;31057;48.498;32.260;2022-08-25T05:50:41;22.70;73.20
45319;DHT22;31057;48.498;32.260;2022-08-25T05:53:45;22.90;72.10
45319;DHT22;31057;48.498;32.260;2022-08-25T05:56:47;23.00;72.80
45319;DHT22;31057;48.498;32.260;2022-08-25T05:59:49;23.10;72.30
45319;DHT22;31057;48.498;32.260;2022-08-25T06:02:51;23.20;71.40
45319;DHT22;31057;48.498;32.260;2022-08-25T06:05:53;23.30;72.70
45319;DHT22;31057;48.498;32.260;2022-08-25T06:09:06;23.50;73.10
45319;DHT22;31057;48.498;32.260;2022-08-25T06:12:09;23.50;73.80
45319;DHT22;31057;48.498;32.260;2022-08-25T06:15:17;23.50;72.10
45319;DHT22;31057;48.498;32.260;2022-08-25T06:18:19;23.60;71.70
45319;DHT22;31057;48.498;32.260;2022-08-25T06:21:22;23.70;72.60
45319;DHT22;31057;48.498;32.260;2022-08-25T06:24:25;23.80;71.30
45319;DHT22;31057;48.498;32.260;2022-08-25T06:27:28;24.00;69.20
45319;DHT22;31057;48.498;32.260;2022-08-25T06:30:30;24.20;69.80
45319;DHT22;31057;48.498;32.260;2022-08-25T06:33:32;24.20;70.00
45319;DHT22;31057;48.498;32.260;2022-08-25T06:36:34;24.40;70.00
45319;DHT22;31057;48.498;32.260;2022-08-25T06:39:36;24.40;68.50
45319;DHT22;31057;48.498;32.260;2022-08-25T06:42:38;24.60;69.20
45319;DHT22;31057;48.498;32.260;2022-08-25T06:45:40;24.50;68.60
45319;DHT22;31057;48.498;32.260;2022-08-25T06:48:44;24.60;68.30
45319;DHT22;31057;48.498;32.260;2022-08-25T06:51:46;24.80;68.60
45319;DHT22;31057;48.498;32.260;2022-08-25T06:54:49;24.90;67.70
45319;DHT22;31057;48.498;32.260;2022-08-25T06:57:53;25.00;67.30
45319;DHT22;31057;48.498;32.260;2022-08-25T07:00:55;25.00;67.40
45319;DHT22;31057;48.498;32.260;2022-08-25T07:04:00;25.20;67.90
45319;DHT22;31057;48.498;32.260;2022-08-25T07:07:03;25.20;66.10
45319;DHT22;31057;48.498;32.260;2022-08-25T07:10:05;25.30;65.80
45319;DHT22;31057;48.498;32.260;2022-08-25T07:13:08;25.50;66.80
45319;DHT22;31057;48.498;32.260;2022-08-25T07:16:10;25.40;66.90
45319;DHT22;31057;48.498;32.260;2022-08-25T07:19:12;25.60;65.50
45319;DHT22;31057;48.498;32.260;2022-08-25T07:22:15;25.80;64.20
45319;DHT22;31057;48.498;32.260;2022-08-25T07:25:17;26.00;63.10
45319;DHT22;31057;48.498;32.260;2022-08-25T07:28:20;26.20;63.40
45319;DHT22;31057;48.498;32.260;2022-08-25T07:31:23;26.10;61.90
45319;DHT22;31057;48.498;32.260;2022-08-25T07:34:30;26.20;61.50
45319;DHT22;31057;48.498;32.260;2022-08-25T07:37:54;26.30;59.80
45319;DHT22;31057;48.498;32.260;2022-08-25T07:41:01;26.30;59.80
45319;DHT22;31057;48.498;32.260;2022-08-25T07:44:05;26.50;58.30
45319;DHT22;31057;48.498;32.260;2022-08-25T07:47:07;26.70;59.10
45319;DHT22;31057;48.498;32.260;2022-08-25T07:50:11;26.80;58.90
45319;DHT22;31057;48.498;32.260;2022-08-25T07:53:14;27.00;59.20
45319;DHT22;31057;48.498;32.260;2022-08-25T07:56:17;27.00;58.70
45319;DHT22;31057;48.498;32.260;2022-08-25T07:59:20;27.00;56.60
45319;DHT22;31057;48.498;32.260;2022-08-25T08:02:22;27.30;57.00
45319;DHT22;31057;48.498;32.260;2022-08-25T08:05:26;27.40;56.70
45319;DHT22;31057;48.498;32.260;2022-08-25T08:08:28;27.40;56.80
45319;DHT22;31057;48.498;32.260;2022-08-25T08:11:34;27.40;56.60
45319;DHT22;31057;48.498;32.260;2022-08-25T08:14:54;27.50;55.60
45319;DHT22;31057;48.498;32.260;2022-08-25T08:17:59;27.50;53.80
45319;DHT22;31057;48.498;32.260;2022-08-25T08:21:01;27.70;54.60
45319;DHT22;31057;48.498;32.260;2022-08-25T08:24:04;27.90;54.30
45319;DHT22;31057;48.498;32.260;2022-08-25T08:27:27;27.80;53.00
45319;DHT22;31057;48.498;32.260;2022-08-25T08:30:29;28.00;53.20
45319;DHT22;31057;48.498;32.260;2022-08-25T08:33:32;28.10;53.10
45319;DHT22;31057;48.498;32.260;2022-08-25T08:36:41;28.00;51.90
45319;DHT22;31057;48.498;32.260;2022-08-25T08:39:45;28.00;51.50
45319;DHT22;31057;48.498;32.260;2022-08-25T08:43:10;27.90;51.90
45319;DHT22;31057;48.498;32.260;2022-08-25T08:46:20;28.10;53.00
45319;DHT22;31057;48.498;32.260;2022-08-25T08:49:48;28.30;52.70
45319;DHT22;31057;48.498;32.260;2022-08-25T08:56:29;28.40;50.30
45319;DHT22;31057;48.498;32.260;2022-08-25T09:00:03;28.30;50.80
45319;DHT22;31057;48.498;32.260;2022-08-25T09:03:15;28.40;51.70
45319;DHT22;31057;48.498;32.260;2022-08-25T09:06:24;28.40;50.70
45319;DHT22;31057;48.498;32.260;2022-08-25T09:09:33;28.70;49.90
45319;DHT22;31057;48.498;32.260;2022-08-25T09:12:48;28.50;47.80
45319;DHT22;31057;48.498;32.260;2022-08-25T09:16:05;28.60;47.70
45319;DHT22;31057;48.498;32.260;2022-08-25T09:20:08;28.40;47.80
45319;DHT22;31057;48.498;32.260;2022-08-25T09:26:39;28.70;48.60
45319;DHT22;31057;48.498;32.260;2022-08-25T09:30:06;28.90;46.50
45319;DHT22;31057;48.498;32.260;2022-08-25T09:33:14;28.70;46.70
45319;DHT22;31057;48.498;32.260;2022-08-25T09:36:23;28.90;47.20
45319;DHT22;31057;48.498;32.260;2022-08-25T09:39:25;28.70;46.50
45319;DHT22;31057;48.498;32.260;2022-08-25T09:42:48;28.80;46.70
45319;DHT22;31057;48.498;32.260;2022-08-25T09:49:12;28.70;46.80
45319;DHT22;31057;48.498;32.260;2022-08-25T09:55:30;29.00;46.00
45319;DHT22;31057;48.498;32.260;2022-08-25T09:58:35;28.90;45.50
45319;DHT22;31057;48.498;32.260;2022-08-25T10:01:47;29.10;46.60
45319;DHT22;31057;48.498;32.260;2022-08-25T10:04:50;29.00;45.70
45319;DHT22;31057;48.498;32.260;2022-08-25T10:08:01;28.90;46.10
45319;DHT22;31057;48.498;32.260;2022-08-25T10:11:10;29.00;46.80
45319;DHT22;31057;48.498;32.260;2022-08-25T10:17:26;29.10;46.90
45319;DHT22;31057;48.498;32.260;2022-08-25T10:20:30;29.30;48.20
45319;DHT22;31057;48.498;32.260;2022-08-25T10:23:52;29.20;47.60
45319;DHT22;31057;48.498;32.260;2022-08-25T10:27:06;29.40;47.60
45319;DHT22;31057;48.498;32.260;2022-08-25T10:34:39;29.20;47.60
45319;DHT22;31057;48.498;32.260;2022-08-25T10:41:10;29.30;47.90
45319;DHT22;31057;48.498;32.260;2022-08-25T10:44:32;29.30;47.50
45319;DHT22;31057;48.498;32.260;2022-08-25T10:52:00;29.20;46.70
45319;DHT22;31057;48.498;32.260;2022-08-25T10:55:05;29.10;47.40
45319;DHT22;31057;48.498;32.260;2022-08-25T10:58:49;29.20;48.80
45319;DHT22;31057;48.498;32.260;2022-08-25T11:08:51;29.30;47.20
45319;DHT22;31057;48.498;32.260;2022-08-25T11:12:02;29.50;47.70
45319;DHT22;31057;48.498;32.260;2022-08-25T11:15:20;29.50;47.30
45319;DHT22;31057;48.498;32.260;2022-08-25T11:18:24;29.60;46.50
45319;DHT22;31057;48.498;32.260;2022-08-25T11:22:11;29.50;46.70
45319;DHT22;31057;48.498;32.260;2022-08-25T11:28:25;29.70;47.60
45319;DHT22;31057;48.498;32.260;2022-08-25T11:31:36;29.50;46.20
45319;DHT22;31057;48.498;32.260;2022-08-25T11:34:39;29.60;46.00
45319;DHT22;31057;48.498;32.260;2022-08-25T11:41:30;29.70;45.60
45319;DHT22;31057;48.498;32.260;2022-08-25T11:51:10;29.90;47.20
45319;DHT22;31057;48.498;32.260;2022-08-25T11:54:37;30.00;45.70
45319;DHT22;31057;48.498;32.260;2022-08-25T11:57:46;29.80;45.20
45319;DHT22;31057;48.498;32.260;2022-08-25T12:00:55;29.90;46.40
45319;DHT22;31057;48.498;32.260;2022-08-25T12:14:43;29.70;44.50
45319;DHT22;31057;48.498;32.260;2022-08-25T12:21:10;29.90;45.50
45319;DHT22;31057;48.498;32.260;2022-08-25T12:24:24;29.80;44.80
45319;DHT22;31057;48.498;32.260;2022-08-25T12:30:55;29.90;45.20
45319;DHT22;31057;48.498;32.260;2022-08-25T12:37:16;29.80;43.50
45319;DHT22;31057;48.498;32.260;2022-08-25T12:40:30;30.00;44.30
45319;DHT22;31057;48.498;32.260;2022-08-25T12:43:47;29.90;44.90
45319;DHT22;31057;48.498;32.260;2022-08-25T12:47:51;30.00;44.40
45319;DHT22;31057;48.498;32.260;2022-08-25T12:50:44;30.10;45.60
45319;DHT22;31057;48.498;32.260;2022-08-25T12:53:51;30.30;44.10
45319;DHT22;31057;48.498;32.260;2022-08-25T12:57:00;30.30;41.70
45319;DHT22;31057;48.498;32.260;2022-08-25T13:00:14;30.20;41.90
45319;DHT22;31057;48.498;32.260;2022-08-25T13:10:43;30.20;41.70
45319;DHT22;31057;48.498;32.260;2022-08-25T13:16:58;30.40;42.20
45319;DHT22;31057;48.498;32.260;2022-08-25T13:20:30;30.20;42.20
45319;DHT22;31057;48.498;32.260;2022-08-25T13:23:39;30.20;42.60
45319;DHT22;31057;48.498;32.260;2022-08-25T13:26:43;30.10;42.80
45319;DHT22;31057;48.498;32.260;2022-08-25T13:29:56;30.10;42.70
45319;DHT22;31057;48.498;32.260;2022-08-25T13:33:16;30.40;41.60
45319;DHT22;31057;48.498;32.260;2022-08-25T13:36:24;31.00;41.70
45319;DHT22;31057;48.498;32.260;2022-08-25T13:43:13;31.80;40.50
45319;DHT22;31057;48.498;32.260;2022-08-25T13:46:22;31.90;40.20
45319;DHT22;31057;48.498;32.260;2022-08-25T13:49:26;32.10;39.20
45319;DHT22;31057;48.498;32.260;2022-08-25T13:52:28;32.30;41.00
45319;DHT22;31057;48.498;32.260;2022-08-25T13:58:53;32.50;39.40
45319;DHT22;31057;48.498;32.260;2022-08-25T14:01:57;32.10;39.80
45319;DHT22;31057;48.498;32.260;2022-08-25T14:05:00;32.10;40.10
45319;DHT22;31057;48.498;32.260;2022-08-25T14:08:03;32.20;38.70
45319;DHT22;31057;48.498;32.260;2022-08-25T14:14:32;32.10;39.40
45319;DHT22;31057;48.498;32.260;2022-08-25T14:17:36;32.40;39.20
45319;DHT22;31057;48.498;32.260;2022-08-25T14:20:49;33.40;38.40
45319;DHT22;31057;48.498;32.260;2022-08-25T14:23:53;34.00;36.40
45319;DHT22;31057;48.498;32.260;2022-08-25T14:26:55;33.40;36.70
45319;DHT22;31057;48.498;32.260;2022-08-25T14:29:58;33.10;37.60
45319;DHT22;31057;48.498;32.260;2022-08-25T14:33:02;33.00;37.90
45319;DHT22;31057;48.498;32.260;2022-08-25T14:36:05;33.40;38.10
45319;DHT22;31057;48.498;32.260;2022-08-25T14:39:07;33.90;37.20
45319;DHT22;31057;48.498;32.260;2022-08-25T14:42:10;33.70;37.60
45319;DHT22;31057;48.498;32.260;2022-08-25T14:45:17;34.20;38.70
45319;DHT22;31057;48.498;32.260;2022-08-25T14:48:45;33.90;37.30
45319;DHT22;31057;48.498;32.260;2022-08-25T14:51:46;33.80;38.40
45319;DHT22;31057;48.498;32.260;2022-08-25T14:54:49;33.80;37.80
45319;DHT22;31057;48.498;32.260;2022-08-25T14:57:51;33.50;38.70
45319;DHT22;31057;48.498;32.260;2022-08-25T15:00:54;33.40;38.40
45319;DHT22;31057;48.498;32.260;2022-08-25T15:04:20;33.30;38.80
45319;DHT22;31057;48.498;32.260;2022-08-25T15:07:31;34.10;38.20
45319;DHT22;31057;48.498;32.260;2022-08-25T15:10:53;33.70;38.40
45319;DHT22;31057;48.498;32.260;2022-08-25T15:13:55;33.60;38.80
45319;DHT22;31057;48.498;32.260;2022-08-25T15:16:57;33.30;38.60
45319;DHT22;31057;48.498;32.260;2022-08-25T15:19:59;33.50;39.20
45319;DHT22;31057;48.498;32.260;2022-08-25T15:23:06;33.10;40.30
45319;DHT22;31057;48.498;32.260;2022-08-25T15:26:10;32.70;40.30
45319;DHT22;31057;48.498;32.260;2022-08-25T15:29:13;32.40;40.60
45319;DHT22;31057;48.498;32.260;2022-08-25T15:32:16;31.80;41.70
45319;DHT22;31057;48.498;32.260;2022-08-25T15:35:19;31.50;42.20
45319;DHT22;31057;48.498;32.260;2022-08-25T15:38:21;31.30;42.60
45319;DHT22;31057;48.498;32.260;2022-08-25T15:41:23;31.20;43.10
45319;DHT22;31057;48.498;32.260;2022-08-25T15:44:28;31.30;43.30
45319;DHT22;31057;48.498;32.260;2022-08-25T15:47:31;31.10;44.10
45319;DHT22;31057;48.498;32.260;2022-08-25T15:50:34;31.00;44.10
45319;DHT22;31057;48.498;32.260;2022-08-25T15:53:36;30.80;44.60
45319;DHT22;31057;48.498;32.260;2022-08-25T15:56:38;30.60;44.70
45319;DHT22;31057;48.498;32.260;2022-08-25T15:59:43;30.60;45.20
45319;DHT22;31057;48.498;32.260;2022-08-25T16:02:46;30.40;45.50
45319;DHT22;31057;48.498;32.260;2022-08-25T16:05:48;30.00;46.80
45319;DHT22;31057;48.498;32.260;2022-08-25T16:08:51;29.70;47.10
45319;DHT22;31057;48.498;32.260;2022-08-25T16:11:54;29.50;47.30
45319;DHT22;31057;48.498;32.260;2022-08-25T16:14:59;29.30;47.60
45319;DHT22;31057;48.498;32.260;2022-08-25T16:18:04;29.10;48.10
45319;DHT22;31057;48.498;32.260;2022-08-25T16:21:15;28.80;48.70
45319;DHT22;31057;48.498;32.260;2022-08-25T16:24:18;28.60;49.10
45319;DHT22;31057;48.498;32.260;2022-08-25T16:27:21;28.40;49.50
45319;DHT22;31057;48.498;32.260;2022-08-25T16:30:23;28.20;49.80
45319;DHT22;31057;48.498;32.260;2022-08-25T16:33:25;27.90;50.40
45319;DHT22;31057;48.498;32.260;2022-08-25T16:36:27;27.70;51.10
45319;DHT22;31057;48.498;32.260;2022-08-25T16:39:30;27.70;51.00
45319;DHT22;31057;48.498;32.260;2022-08-25T16:42:32;27.40;51.70
45319;DHT22;31057;48.498;32.260;2022-08-25T16:45:34;27.40;52.10
45319;DHT22;31057;48.498;32.260;2022-08-25T16:48:38;27.20;52.30
45319;DHT22;31057;48.498;32.260;2022-08-25T16:51:42;27.20;52.50
45319;DHT22;31057;48.498;32.260;2022-08-25T16:54:44;26.90;53.10
45319;DHT22;31057;48.498;32.260;2022-08-25T16:58:04;26.90;53.40
45319;DHT22;31057;48.498;32.260;2022-08-25T17:01:11;26.80;53.60
45319;DHT22;31057;48.498;32.260;2022-08-25T17:04:16;26.80;53.40
45319;DHT22;31057;48.498;32.260;2022-08-25T17:07:18;26.60;53.70
45319;DHT22;31057;48.498;32.260;2022-08-25T17:10:24;26.60;54.20
45319;DHT22;31057;48.498;32.260;2022-08-25T17:13:27;26.50;54.20
45319;DHT22;31057;48.498;32.260;2022-08-25T17:16:33;26.40;54.40
45319;DHT22;31057;48.498;32.260;2022-08-25T17:19:37;26.30;54.60
45319;DHT22;31057;48.498;32.260;2022-08-25T17:22:42;26.40;54.60
45319;DHT22;31057;48.498;32.260;2022-08-25T17:25:44;26.30;54.60
45319;DHT22;31057;48.498;32.260;2022-08-25T17:28:47;26.20;54.90
45319;DHT22;31057;48.498;32.260;2022-08-25T17:31:49;26.20;55.10
45319;DHT22;31057;48.498;32.260;2022-08-25T17:34:52;26.10;55.00
45319;DHT22;31057;48.498;32.260;2022-08-25T17:37:54;26.10;55.20
45319;DHT22;31057;48.498;32.260;2022-08-25T17:40:58;26.20;55.00
45319;DHT22;31057;48.498;32.260;2022-08-25T17:44:02;26.00;55.40
45319;DHT22;31057;48.498;32.260;2022-08-25T17:47:04;26.10;55.00
45319;DHT22;31057;48.498;32.260;2022-08-25T17:50:08;26.00;55.20
45319;DHT22;31057;48.498;32.260;2022-08-25T17:53:12;26.00;55.10
45319;DHT22;31057;48.498;32.260;2022-08-25T17:56:19;26.00;55.20
45319;DHT22;31057;48.498;32.260;2022-08-25T17:59:22;26.00;55.20
45319;DHT22;31057;48.498;32.260;2022-08-25T18:02:24;26.20;54.50
45319;DHT22;31057;48.498;32.260;2022-08-25T18:05:29;26.00;55.20
45319;DHT22;31057;48.498;32.260;2022-08-25T18:08:33;25.90;55.20
45319;DHT22;31057;48.498;32.260;2022-08-25T18:11:38;25.90;55.40
45319;DHT22;31057;48.498;32.260;2022-08-25T18:14:40;26.00;54.80
45319;DHT22;31057;48.498;32.260;2022-08-25T18:17:46;26.00;55.10
45319;DHT22;31057;48.498;32.260;2022-08-25T18:20:48;25.80;55.20
45319;DHT22;31057;48.498;32.260;2022-08-25T18:23:51;26.00;54.90
45319;DHT22;31057;48.498;32.260;2022-08-25T18:26:53;25.80;55.20
45319;DHT22;31057;48.498;32.260;2022-08-25T18:29:56;25.90;55.00
45319;DHT22;31057;48.498;32.260;2022-08-25T18:33:00;25.80;55.20
45319;DHT22;31057;48.498;32.260;2022-08-25T18:36:03;25.80;55.10
45319;DHT22;31057;48.498;32.260;2022-08-25T18:39:06;25.60;55.30
45319;DHT22;31057;48.498;32.260;2022-08-25T18:42:26;25.60;55.70
45319;DHT22;31057;48.498;32.260;2022-08-25T18:45:32;25.50;56.20
45319;DHT22;31057;48.498;32.260;2022-08-25T18:48:41;25.40;56.20
45319;DHT22;31057;48.498;32.260;2022-08-25T18:51:44;25.50;56.10
45319;DHT22;31057;48.498;32.260;2022-08-25T18:54:46;25.40;56.40
45319;DHT22;31057;48.498;32.260;2022-08-25T18:57:49;25.40;56.40
45319;DHT22;31057;48.498;32.260;2022-08-25T19:00:52;25.40;56.00
45319;DHT22;31057;48.498;32.260;2022-08-25T19:03:55;25.40;55.90
45319;DHT22;31057;48.498;32.260;2022-08-25T19:06:59;25.40;55.50
45319;DHT22;31057;48.498;32.260;2022-08-25T19:10:01;25.30;55.50
45319;DHT22;31057;48.498;32.260;2022-08-25T19:13:04;25.30;55.70
45319;DHT22;31057;48.498;32.260;2022-08-25T19:16:18;25.10;56.00
45319;DHT22;31057;48.498;32.260;2022-08-25T19:19:30;25.00;56.40
45319;DHT22;31057;48.498;32.260;2022-08-25T19:22:33;25.10;56.20
45319;DHT22;31057;48.498;32.260;2022-08-25T19:25:42;25.10;56.00
45319;DHT22;31057;48.498;32.260;2022-08-25T19:28:48;25.00;56.40
45319;DHT22;31057;48.498;32.260;2022-08-25T19:31:50;24.90;56.50
45319;DHT22;31057;48.498;32.260;2022-08-25T19:34:53;24.80;56.50
45319;DHT22;31057;48.498;32.260;2022-08-25T19:37:56;24.80;56.70
45319;DHT22;31057;48.498;32.260;2022-08-25T19:40:59;24.80;57.00
45319;DHT22;31057;48.498;32.260;2022-08-25T19:44:02;24.90;56.60
45319;DHT22;31057;48.498;32.260;2022-08-25T19:47:04;25.10;55.90
45319;DHT22;31057;48.498;32.260;2022-08-25T19:50:13;24.90;56.40
45319;DHT22;31057;48.498;32.260;2022-08-25T19:53:17;24.80;56.50
45319;DHT22;31057;48.498;32.260;2022-08-25T19:56:19;24.70;56.90
45319;DHT22;31057;48.498;32.260;2022-08-25T19:59:28;24.70;56.70
45319;DHT22;31057;48.498;32.260;2022-08-25T20:02:43;24.70;56.90
45319;DHT22;31057;48.498;32.260;2022-08-25T20:05:47;24.60;57.30
45319;DHT22;31057;48.498;32.260;2022-08-25T20:08:49;24.60;57.30
45319;DHT22;31057;48.498;32.260;2022-08-25T20:12:01;24.50;57.50
45319;DHT22;31057;48.498;32.260;2022-08-25T20:15:07;24.40;58.10
45319;DHT22;31057;48.498;32.260;2022-08-25T20:18:10;24.40;57.70
45319;DHT22;31057;48.498;32.260;2022-08-25T20:21:12;24.30;57.80
45319;DHT22;31057;48.498;32.260;2022-08-25T20:24:14;24.20;58.30
45319;DHT22;31057;48.498;32.260;2022-08-25T20:27:45;24.20;58.40
45319;DHT22;31057;48.498;32.260;2022-08-25T20:30:47;24.10;58.60
45319;DHT22;31057;48.498;32.260;2022-08-25T20:33:50;24.10;59.10
45319;DHT22;31057;48.498;32.260;2022-08-25T20:36:52;23.90;58.90
45319;DHT22;31057;48.498;32.260;2022-08-25T20:39:54;23.90;59.30
45319;DHT22;31057;48.498;32.260;2022-08-25T20:42:59;23.80;59.40
45319;DHT22;31057;48.498;32.260;2022-08-25T20:46:05;23.80;59.40